Cononcito, New Mexico
Current Conditions -  °F | °C
As of 3:55 PM on Thursday 18 Dec 2014 (Local Time) from KE80 Reporting Station
Overcast Overcast  
Wind Chill: 43°   Ceiling: 7000
Heat Index: 43°   Visibility: 10mi
Dew Point: 29°   Wind: 3mph
Humidity: 58%   Direction: 300°WNW
Pressure: 30.09"   Gusts: NA
Location:  34.9068°N, 107.279°W
Report Text: KE80 182255Z AUTO 30003KT 10SM BKN070 OVC080 06/M01 A3009 RMK AO2 T00631014
Loading
Personal Weather Stations






























Interactive Weather Map New forecast layout! Learn more

10-Day Weather Forecast

Advertisements
Track Severe Weather on mobile